Time;durP1;ratioP1;P1;durP2;ratioP2;P2;SDS_P1;SDS_P2;PMS_P1;PMS_P2;Temp;Humidity;BMP_temperature;BMP_pressure;BME280_temperature;BME280_humidity;BME280_pressure;Samples;Min_cycle;Max_cycle;Signal;HPM_P1;HPM_P2
2022/10/22 00:00:12;;;;;;;;;;;;;;;14.03;100.00;97674.59;5055014;28;19944;-76
2022/10/22 00:02:38;;;;;;;;;;;;;;;14.01;100.00;97684.84;5054429;28;20058;-74
2022/10/22 00:05:05;;;;;;;;;;;;;;;13.82;100.00;97681.34;5057564;28;19980;-75
2022/10/22 00:07:33;;;;;;;;;;;;;;;13.71;100.00;97681.75;5072574;28;19991;-75
2022/10/22 00:09:59;;;;;;;;;;;;;;;13.81;100.00;97684.28;5055181;28;19956;-75
2022/10/22 00:12:26;;;;;;;;;;;;;;;13.94;100.00;97684.38;5069477;28;19992;-73
2022/10/22 00:14:52;;;;;;;;;;;;;;;13.94;100.00;97673.66;5056056;28;20276;-75
2022/10/22 00:17:19;;;;;;;;;;;;;;;13.65;100.00;97670.28;5056766;28;19925;-75
2022/10/22 00:19:45;;;;;;;;;;;;;;;13.67;100.00;97668.13;5056609;28;19925;-72
2022/10/22 00:22:11;;;;;;;;;;;;;;;13.94;100.00;97673.66;5054312;28;20004;-73
2022/10/22 00:24:39;;;;;;;;;;;;;;;13.85;100.00;97661.16;5054698;28;19964;-77
2022/10/22 00:27:06;;;;;;;;;;;;;;;13.57;100.00;97659.38;5058994;28;19970;-73
2022/10/22 00:29:32;;;;;;;;;;;;;;;13.71;100.00;97663.75;5061872;28;19920;-73
2022/10/22 00:32:14;;;;;;;;;;;;;;;13.90;100.00;97655.72;5059325;28;20121;-76
2022/10/22 00:34:43;;;;;;;;;;;;;;;13.87;100.00;97654.41;5058480;28;19952;-74
2022/10/22 00:37:10;;;;;;;;;;;;;;;14.03;100.00;97658.47;5061090;28;19925;-73
2022/10/22 00:39:36;;;;;;;;;;;;;;;14.17;100.00;97663.94;5060969;28;19963;-73
2022/10/22 00:42:04;;;;;;;;;;;;;;;14.05;100.00;97660.84;5057910;28;20556;-72
2022/10/22 00:44:49;;;;;;;;;;;;;;;14.00;100.00;97655.56;5055907;28;19925;-76
2022/10/22 00:47:15;;;;;;;;;;;;;;;14.18;100.00;97649.38;5050245;28;20020;-74
2022/10/22 00:49:42;;;;;;;;;;;;;;;14.13;100.00;97654.84;5057222;28;19925;-73
2022/10/22 00:52:09;;;;;;;;;;;;;;;14.19;100.00;97655.56;5059932;28;19925;-75
2022/10/22 00:54:35;;;;;;;;;;;;;;;14.35;100.00;97654.28;5057561;28;19944;-76
2022/10/22 00:57:01;;;;;;;;;;;;;;;14.46;100.00;97655.69;5059969;28;20010;-74
2022/10/22 00:59:29;;;;;;;;;;;;;;;14.08;100.00;97658.41;5076065;28;20011;-73
2022/10/22 01:01:56;;;;;;;;;;;;;;;14.04;100.00;97659.28;5057165;28;19925;-76
2022/10/22 01:04:22;;;;;;;;;;;;;;;14.21;100.00;97667.59;5072958;28;19953;-74
2022/10/22 01:06:49;;;;;;;;;;;;;;;14.33;100.00;97651.88;5058235;28;20101;-73
2022/10/22 01:09:20;;;;;;;;;;;;;;;14.28;100.00;97659.19;5075870;28;20008;-75
2022/10/22 01:11:52;;;;;;;;;;;;;;;14.24;100.00;97661.66;5075480;28;19987;-78
2022/10/22 01:14:22;;;;;;;;;;;;;;;14.35;100.00;97663.13;5057053;28;19988;-76
2022/10/22 01:16:54;;;;;;;;;;;;;;;14.44;100.00;97666.75;5057784;28;19960;-76
2022/10/22 01:19:31;;;;;;;;;;;;;;;14.50;100.00;97651.34;5060097;28;19984;-75
2022/10/22 01:22:00;;;;;;;;;;;;;;;14.54;100.00;97644.28;5058143;28;20015;-76
2022/10/22 01:24:41;;;;;;;;;;;;;;;14.54;100.00;97652.34;5056473;28;19932;-75
2022/10/22 01:27:16;;;;;;;;;;;;;;;14.48;100.00;97640.88;5063681;28;19936;-75
2022/10/22 01:29:47;;;;;;;;;;;;;;;14.39;100.00;97652.59;5056913;28;19931;-75
2022/10/22 01:32:15;;;;;;;;;;;;;;;14.41;100.00;97653.09;5060485;28;19929;-75
2022/10/22 01:34:43;;;;;;;;;;;;;;;14.37;100.00;97655.56;5060057;28;19960;-75
2022/10/22 01:37:12;;;;;;;;;;;;;;;14.41;100.00;97645.03;5047059;28;19925;-75
2022/10/22 01:39:39;;;;;;;;;;;;;;;14.46;100.00;97647.63;5056510;28;20297;-74
2022/10/22 01:42:06;;;;;;;;;;;;;;;14.55;100.00;97653.94;5059720;28;20019;-75
2022/10/22 01:44:33;;;;;;;;;;;;;;;14.51;100.00;97644.88;5059931;28;19992;-76
2022/10/22 01:47:07;;;;;;;;;;;;;;;14.48;100.00;97657.00;5056809;28;20094;-76
2022/10/22 01:49:43;;;;;;;;;;;;;;;14.55;100.00;97651.25;5052024;28;20011;-76
2022/10/22 01:52:15;;;;;;;;;;;;;;;14.60;100.00;97656.56;5064514;28;19955;-75
2022/10/22 01:54:45;;;;;;;;;;;;;;;14.59;100.00;97653.06;5056578;28;19936;-75
2022/10/22 01:57:17;;;;;;;;;;;;;;;14.64;100.00;97648.69;5044421;28;19937;-76
2022/10/22 01:59:47;;;;;;;;;;;;;;;14.62;100.00;97645.50;5053537;28;20414;-75
2022/10/22 02:02:18;;;;;;;;;;;;;;;14.64;100.00;97646.78;5059314;28;19932;-76
2022/10/22 02:04:46;;;;;;;;;;;;;;;14.62;100.00;97640.13;5058473;28;19960;-75
2022/10/22 02:07:15;;;;;;;;;;;;;;;14.67;100.00;97638.13;5052250;28;19968;-76
2022/10/22 02:09:42;;;;;;;;;;;;;;;14.67;100.00;97634.66;5053058;28;19964;-76
2022/10/22 02:12:09;;;;;;;;;;;;;;;14.59;100.00;97634.25;5043687;28;19981;-76
2022/10/22 02:14:37;;;;;;;;;;;;;;;14.50;100.00;97629.84;5051522;28;19925;-76
2022/10/22 02:17:06;;;;;;;;;;;;;;;14.30;100.00;97632.81;5057603;28;19925;-76
2022/10/22 02:19:38;;;;;;;;;;;;;;;14.14;100.00;97626.91;5074598;28;19924;-76
2022/10/22 02:22:04;;;;;;;;;;;;;;;13.83;100.00;97623.88;5056060;28;19925;-75
2022/10/22 02:24:31;;;;;;;;;;;;;;;13.87;100.00;97630.25;5056450;28;19932;-76
2022/10/22 02:27:00;;;;;;;;;;;;;;;14.13;100.00;97641.41;5057975;28;20020;-76
2022/10/22 02:29:30;;;;;;;;;;;;;;;14.11;100.00;97642.81;5074394;28;19960;-76
2022/10/22 02:31:58;;;;;;;;;;;;;;;14.19;100.00;97652.88;5057016;28;20027;-74
2022/10/22 02:34:27;;;;;;;;;;;;;;;14.27;100.00;97650.31;5055391;28;19952;-76
2022/10/22 02:36:56;;;;;;;;;;;;;;;14.36;100.00;97669.31;5072731;28;19925;-76
2022/10/22 02:39:24;;;;;;;;;;;;;;;14.40;100.00;97672.97;5058050;28;20040;-76
2022/10/22 02:41:51;;;;;;;;;;;;;;;14.40;100.00;97679.16;5056625;28;19924;-76
2022/10/22 02:44:20;;;;;;;;;;;;;;;14.10;100.00;97674.22;5055399;28;19925;-75
2022/10/22 02:46:46;;;;;;;;;;;;;;;14.01;100.00;97686.72;5056505;28;19925;-74
2022/10/22 02:49:13;;;;;;;;;;;;;;;13.87;100.00;97693.88;5056996;28;20305;-75
2022/10/22 02:51:39;;;;;;;;;;;;;;;13.70;100.00;97702.44;5058581;28;20131;-75
2022/10/22 02:54:07;;;;;;;;;;;;;;;13.74;100.00;97706.13;5055773;28;20012;-75
2022/10/22 02:56:33;;;;;;;;;;;;;;;13.65;100.00;97694.44;5056037;28;19985;-75
2022/10/22 02:59:00;;;;;;;;;;;;;;;13.64;100.00;97690.16;5056584;28;19961;-76
2022/10/22 03:01:26;;;;;;;;;;;;;;;13.53;100.00;97692.16;5073396;28;19996;-76
2022/10/22 03:03:52;;;;;;;;;;;;;;;13.43;100.00;97696.88;5057092;28;19932;-75
2022/10/22 03:06:19;;;;;;;;;;;;;;;13.40;100.00;97702.81;5055058;28;19925;-76
2022/10/22 03:08:45;;;;;;;;;;;;;;;13.22;100.00;97692.78;5055384;28;19988;-75
2022/10/22 03:11:13;;;;;;;;;;;;;;;13.18;100.00;97687.22;5058672;28;19975;-75
2022/10/22 03:13:39;;;;;;;;;;;;;;;13.20;100.00;97693.09;5058810;28;19928;-76
2022/10/22 03:16:06;;;;;;;;;;;;;;;13.18;100.00;97689.91;5055120;28;19951;-75
2022/10/22 03:18:32;;;;;;;;;;;;;;;13.19;100.00;97682.63;5055130;28;19984;-75
2022/10/22 03:21:04;;;;;;;;;;;;;;;13.35;100.00;97694.78;5056954;28;19988;-75
2022/10/22 03:23:31;;;;;;;;;;;;;;;13.50;100.00;97694.63;5058030;28;19971;-75
2022/10/22 03:25:58;;;;;;;;;;;;;;;13.29;100.00;97677.16;5056094;28;19924;-75
2022/10/22 03:28:26;;;;;;;;;;;;;;;13.09;100.00;97677.41;5055481;28;19925;-75
2022/10/22 03:30:53;;;;;;;;;;;;;;;12.99;100.00;97664.88;5057018;28;20016;-75
2022/10/22 03:33:19;;;;;;;;;;;;;;;12.94;100.00;97667.59;5074328;28;20124;-75
2022/10/22 03:35:46;;;;;;;;;;;;;;;12.85;100.00;97678.13;5073417;28;20011;-75
2022/10/22 03:38:14;;;;;;;;;;;;;;;12.82;100.00;97678.69;5053786;28;19958;-75
2022/10/22 03:40:41;;;;;;;;;;;;;;;12.90;100.00;97686.09;5054704;28;19945;-75
2022/10/22 03:43:07;;;;;;;;;;;;;;;12.89;100.00;97684.53;5078724;28;19921;-75
2022/10/22 03:45:35;;;;;;;;;;;;;;;12.92;100.00;97677.81;5054532;28;19960;-75
2022/10/22 03:48:01;;;;;;;;;;;;;;;13.10;100.00;97673.63;5057054;28;19971;-75
2022/10/22 03:50:28;;;;;;;;;;;;;;;13.13;100.00;97673.03;5057964;28;19925;-76
2022/10/22 03:52:54;;;;;;;;;;;;;;;13.32;100.00;97685.44;5050947;28;20016;-75
2022/10/22 03:55:21;;;;;;;;;;;;;;;13.49;100.00;97703.75;5057356;28;19996;-75
2022/10/22 03:57:47;;;;;;;;;;;;;;;13.62;100.00;97708.41;5056464;28;20269;-75
2022/10/22 04:00:14;;;;;;;;;;;;;;;13.70;100.00;97713.16;5069597;28;19928;-75
2022/10/22 04:02:42;;;;;;;;;;;;;;;13.88;100.00;97712.38;5053933;28;20441;-75
2022/10/22 04:05:08;;;;;;;;;;;;;;;13.89;100.00;97723.94;5061502;28;19935;-75
2022/10/22 04:07:35;;;;;;;;;;;;;;;14.00;100.00;97736.94;5054228;28;19935;-75
2022/10/22 04:10:01;;;;;;;;;;;;;;;14.02;100.00;97745.47;5056690;28;19989;-75
2022/10/22 04:12:28;;;;;;;;;;;;;;;13.65;100.00;97744.63;5072553;28;20246;-75
2022/10/22 04:14:54;;;;;;;;;;;;;;;13.50;100.00;97738.34;5055854;28;19924;-75
2022/10/22 04:17:20;;;;;;;;;;;;;;;13.38;100.00;97729.91;5052597;28;19925;-75
2022/10/22 04:19:48;;;;;;;;;;;;;;;13.36;100.00;97737.44;5054055;28;20656;-74
2022/10/22 04:22:14;;;;;;;;;;;;;;;13.52;100.00;97727.34;5054349;28;19931;-75
2022/10/22 04:24:41;;;;;;;;;;;;;;;13.40;100.00;97716.22;5048726;28;20122;-75
2022/10/22 04:27:07;;;;;;;;;;;;;;;13.36;100.00;97715.19;5046327;28;19932;-76
2022/10/22 04:29:34;;;;;;;;;;;;;;;13.30;100.00;97725.16;5056679;28;19925;-76
2022/10/22 04:32:00;;;;;;;;;;;;;;;13.31;100.00;97726.75;5060101;28;19931;-76
2022/10/22 04:34:27;;;;;;;;;;;;;;;13.40;100.00;97737.66;5076986;28;19967;-75
2022/10/22 04:36:55;;;;;;;;;;;;;;;13.46;100.00;97736.53;5059981;28;19928;-75
2022/10/22 04:39:21;;;;;;;;;;;;;;;13.60;100.00;97723.22;5055060;28;19988;-74
2022/10/22 04:41:48;;;;;;;;;;;;;;;13.74;100.00;97722.22;5057937;28;19925;-74
2022/10/22 04:44:14;;;;;;;;;;;;;;;13.81;100.00;97727.25;5060777;28;19929;-75
2022/10/22 04:46:40;;;;;;;;;;;;;;;13.94;100.00;97721.16;5060708;28;19960;-75
2022/10/22 04:49:07;;;;;;;;;;;;;;;13.70;100.00;97721.22;5057219;28;19957;-75
2022/10/22 04:51:33;;;;;;;;;;;;;;;13.69;100.00;97734.91;5057147;28;19956;-76
2022/10/22 04:54:01;;;;;;;;;;;;;;;13.89;100.00;97724.72;5058444;28;20060;-76
2022/10/22 04:56:28;;;;;;;;;;;;;;;13.76;100.00;97730.00;5054381;28;19929;-75
2022/10/22 04:58:56;;;;;;;;;;;;;;;13.85;100.00;97729.06;5054183;28;20027;-75
2022/10/22 05:01:23;;;;;;;;;;;;;;;13.97;100.00;97726.75;5072060;28;19976;-74
2022/10/22 05:03:50;;;;;;;;;;;;;;;13.95;100.00;97728.94;5056273;28;19921;-75
2022/10/22 05:06:17;;;;;;;;;;;;;;;13.98;100.00;97754.41;5053862;28;19925;-75
2022/10/22 05:08:43;;;;;;;;;;;;;;;14.08;100.00;97744.31;5069413;28;19953;-75
2022/10/22 05:11:12;;;;;;;;;;;;;;;14.17;100.00;97762.50;5071492;28;19929;-76
2022/10/22 05:13:38;;;;;;;;;;;;;;;14.22;100.00;97778.53;5056272;28;19936;-76
2022/10/22 05:16:05;;;;;;;;;;;;;;;14.27;100.00;97771.19;5060788;28;19988;-75
2022/10/22 05:18:33;;;;;;;;;;;;;;;14.28;100.00;97745.13;5060742;28;20011;-76
2022/10/22 05:20:59;;;;;;;;;;;;;;;14.27;100.00;97757.75;5058544;28;19978;-75
2022/10/22 05:23:26;;;;;;;;;;;;;;;14.12;100.00;97762.53;5057137;28;20382;-75
2022/10/22 05:25:53;;;;;;;;;;;;;;;14.00;100.00;97763.78;5059374;28;19925;-76
2022/10/22 05:28:21;;;;;;;;;;;;;;;14.07;100.00;97766.91;5056596;28;19925;-76
2022/10/22 05:30:52;;;;;;;;;;;;;;;14.16;100.00;97777.81;5056272;28;19932;-74
2022/10/22 05:33:18;;;;;;;;;;;;;;;14.05;100.00;97781.69;5059437;28;20448;-74
2022/10/22 05:35:45;;;;;;;;;;;;;;;13.98;100.00;97794.69;5059932;28;19951;-75
2022/10/22 05:38:11;;;;;;;;;;;;;;;13.88;100.00;97809.03;5055635;28;19925;-75
2022/10/22 05:40:38;;;;;;;;;;;;;;;13.76;100.00;97808.63;5055404;28;19961;-75
2022/10/22 05:43:04;;;;;;;;;;;;;;;13.62;100.00;97821.13;5059665;28;19960;-75
2022/10/22 05:45:35;;;;;;;;;;;;;;;13.67;100.00;97812.22;5075606;28;20032;-75
2022/10/22 05:48:02;;;;;;;;;;;;;;;13.74;100.00;97813.47;5072557;28;19929;-75
2022/10/22 05:50:28;;;;;;;;;;;;;;;13.75;100.00;97809.72;5053010;28;19971;-75
2022/10/22 05:52:54;;;;;;;;;;;;;;;13.86;100.00;97800.47;5057484;28;19997;-74
2022/10/22 05:55:21;;;;;;;;;;;;;;;13.97;100.00;97807.31;5073918;28;20330;-75
2022/10/22 05:57:49;;;;;;;;;;;;;;;14.12;100.00;97800.94;5056702;28;19952;-75
2022/10/22 06:00:15;;;;;;;;;;;;;;;14.17;100.00;97797.41;5075153;28;20394;-75
2022/10/22 06:02:43;;;;;;;;;;;;;;;14.10;100.00;97795.06;5075453;28;19952;-74
2022/10/22 06:05:10;;;;;;;;;;;;;;;14.01;100.00;97780.69;5048107;28;19925;-75
2022/10/22 06:07:36;;;;;;;;;;;;;;;14.03;100.00;97784.69;5056220;28;19925;-75
2022/10/22 06:10:03;;;;;;;;;;;;;;;13.98;100.00;97792.00;5059443;28;19956;-75
2022/10/22 06:12:29;;;;;;;;;;;;;;;13.96;100.00;97804.91;5058827;28;19925;-76
2022/10/22 06:14:56;;;;;;;;;;;;;;;13.93;100.00;97800.91;5058529;28;19988;-76
2022/10/22 06:17:22;;;;;;;;;;;;;;;13.98;100.00;97802.75;5056007;28;19925;-76
2022/10/22 06:19:50;;;;;;;;;;;;;;;14.01;100.00;97807.53;5057653;28;19988;-76
2022/10/22 06:22:16;;;;;;;;;;;;;;;14.10;100.00;97816.56;5058199;28;19956;-75
2022/10/22 06:24:42;;;;;;;;;;;;;;;14.19;100.00;97805.97;5054818;28;19975;-74
2022/10/22 06:27:09;;;;;;;;;;;;;;;14.23;100.00;97798.94;5044368;28;19967;-75
2022/10/22 06:29:35;;;;;;;;;;;;;;;14.23;100.00;97817.75;5052497;28;19932;-76
2022/10/22 06:32:01;;;;;;;;;;;;;;;14.30;100.00;97826.22;5059155;28;20025;-75
2022/10/22 06:34:28;;;;;;;;;;;;;;;14.32;100.00;97824.06;5057891;28;19964;-75
2022/10/22 06:36:56;;;;;;;;;;;;;;;14.36;100.00;97830.50;5057486;28;19925;-75
2022/10/22 06:39:22;;;;;;;;;;;;;;;14.27;100.00;97832.16;5050896;28;20477;-74
2022/10/22 06:41:48;;;;;;;;;;;;;;;14.04;100.00;97829.25;5069541;28;19929;-74
2022/10/22 06:44:15;;;;;;;;;;;;;;;13.88;100.00;97830.50;5058885;28;19980;-77
2022/10/22 06:46:42;;;;;;;;;;;;;;;13.69;100.00;97843.06;5074316;28;19925;-75
2022/10/22 06:49:11;;;;;;;;;;;;;;;13.63;100.00;97844.19;5046038;28;19932;-75
2022/10/22 06:51:38;;;;;;;;;;;;;;;13.54;100.00;97862.00;5055127;28;19936;-75
2022/10/22 06:54:06;;;;;;;;;;;;;;;13.54;100.00;97867.34;5056274;28;19932;-74
2022/10/22 06:56:32;;;;;;;;;;;;;;;13.52;100.00;97874.91;5050719;28;19925;-76
2022/10/22 06:58:58;;;;;;;;;;;;;;;13.35;100.00;97853.03;5071661;28;19953;-76
2022/10/22 07:01:26;;;;;;;;;;;;;;;13.39;100.00;97854.09;5058860;28;19924;-75
2022/10/22 07:03:53;;;;;;;;;;;;;;;13.39;100.00;97859.44;5072419;28;19924;-75
2022/10/22 07:06:20;;;;;;;;;;;;;;;13.42;100.00;97872.31;5054869;28;20216;-75
2022/10/22 07:08:46;;;;;;;;;;;;;;;13.55;100.00;97879.69;5055046;28;20626;-75
2022/10/22 07:11:15;;;;;;;;;;;;;;;13.62;100.00;97898.13;5073320;28;19967;-75
2022/10/22 07:13:41;;;;;;;;;;;;;;;13.69;100.00;97906.66;5056975;28;19959;-75
2022/10/22 07:16:09;;;;;;;;;;;;;;;13.75;100.00;97917.06;5046502;28;19932;-74
2022/10/22 07:18:36;;;;;;;;;;;;;;;13.82;100.00;97914.84;5054719;28;19925;-75
2022/10/22 07:21:03;;;;;;;;;;;;;;;13.93;100.00;97923.59;5054020;28;20006;-75
2022/10/22 07:23:29;;;;;;;;;;;;;;;13.82;100.00;97939.03;5055252;28;20302;-76
2022/10/22 07:25:56;;;;;;;;;;;;;;;13.94;100.00;97941.31;5055981;28;19932;-75
2022/10/22 07:28:24;;;;;;;;;;;;;;;14.01;100.00;97939.91;5054473;28;19956;-75
2022/10/22 07:30:50;;;;;;;;;;;;;;;14.05;100.00;97953.53;5055470;28;19937;-75
2022/10/22 07:33:16;;;;;;;;;;;;;;;14.00;100.00;97945.56;5057930;28;20015;-75
2022/10/22 07:35:43;;;;;;;;;;;;;;;14.04;100.00;97947.41;5072617;28;19984;-75
2022/10/22 07:38:09;;;;;;;;;;;;;;;14.14;100.00;97937.63;5053447;28;20008;-75
2022/10/22 07:40:36;;;;;;;;;;;;;;;14.21;100.00;97946.94;5053272;28;19925;-75
2022/10/22 07:43:02;;;;;;;;;;;;;;;14.24;100.00;97954.41;5057805;28;19931;-75
2022/10/22 07:45:30;;;;;;;;;;;;;;;14.32;100.00;97947.63;5057537;28;19925;-76
2022/10/22 07:47:58;;;;;;;;;;;;;;;14.24;100.00;97956.31;5056154;28;19925;-76
2022/10/22 07:50:24;;;;;;;;;;;;;;;14.26;100.00;97954.16;5054238;28;19944;-76
2022/10/22 07:52:51;;;;;;;;;;;;;;;14.35;100.00;97957.84;5055925;28;19967;-75
2022/10/22 07:55:17;;;;;;;;;;;;;;;14.39;100.00;97954.28;5073690;28;19984;-76
2022/10/22 07:57:43;;;;;;;;;;;;;;;14.39;100.00;97964.25;5057822;28;19932;-76
2022/10/22 08:00:10;;;;;;;;;;;;;;;14.45;100.00;97961.19;5070052;28;20010;-76
2022/10/22 08:02:38;;;;;;;;;;;;;;;14.35;100.00;97965.91;5052639;28;19927;-76
2022/10/22 08:05:05;;;;;;;;;;;;;;;14.44;100.00;97966.88;5072221;28;19925;-75
2022/10/22 08:07:31;;;;;;;;;;;;;;;14.45;100.00;97969.25;5057380;28;19980;-76
2022/10/22 08:09:57;;;;;;;;;;;;;;;14.45;100.00;97973.84;5055509;28;19991;-76
2022/10/22 08:12:24;;;;;;;;;;;;;;;14.45;100.00;97979.22;5054110;28;19968;-75
2022/10/22 08:14:50;;;;;;;;;;;;;;;14.34;100.00;97993.84;5055030;28;19939;-75
2022/10/22 08:17:32;;;;;;;;;;;;;;;14.22;100.00;97998.78;5073504;28;19935;-76
2022/10/22 08:20:00;;;;;;;;;;;;;;;14.30;100.00;98003.50;5071468;28;19978;-75
2022/10/22 08:22:26;;;;;;;;;;;;;;;14.35;100.00;98000.84;5053765;28;19985;-76
2022/10/22 08:24:59;;;;;;;;;;;;;;;14.35;100.00;97995.47;5056881;28;19925;-76
2022/10/22 08:27:25;;;;;;;;;;;;;;;14.43;100.00;97981.38;5057450;28;19924;-76
2022/10/22 08:29:52;;;;;;;;;;;;;;;14.30;100.00;97984.72;5056269;28;19947;-75
2022/10/22 08:32:18;;;;;;;;;;;;;;;14.33;100.00;97984.97;5054764;28;19936;-75
2022/10/22 08:34:44;;;;;;;;;;;;;;;14.37;100.00;97982.53;5052879;28;19925;-76
2022/10/22 08:37:13;;;;;;;;;;;;;;;14.28;100.00;97987.69;5056536;28;19987;-75
2022/10/22 08:39:39;;;;;;;;;;;;;;;14.32;100.00;97990.63;5057428;28;19925;-75
2022/10/22 08:42:12;;;;;;;;;;;;;;;14.30;100.00;97984.72;5054573;28;19925;-76
2022/10/22 08:45:00;;;;;;;;;;;;;;;14.31;100.00;97987.13;5054436;28;19933;-76
2022/10/22 08:47:33;;;;;;;;;;;;;;;14.28;100.00;97989.56;5046984;28;19925;-76
2022/10/22 08:50:00;;;;;;;;;;;;;;;14.38;100.00;97992.19;5060304;28;19925;-76
2022/10/22 08:52:27;;;;;;;;;;;;;;;14.47;100.00;97993.16;5058438;28;19988;-76
2022/10/22 08:54:56;;;;;;;;;;;;;;;14.50;100.00;97998.78;5061137;28;20311;-76
2022/10/22 08:57:28;;;;;;;;;;;;;;;14.42;100.00;97996.69;5078955;28;19925;-76
2022/10/22 08:59:59;;;;;;;;;;;;;;;14.50;100.00;97997.97;5060635;28;19976;-76
2022/10/22 09:02:32;;;;;;;;;;;;;;;14.50;100.00;97992.59;5058399;28;19955;-76
2022/10/22 09:05:02;;;;;;;;;;;;;;;14.52;100.00;97998.47;5059865;28;19925;-75
2022/10/22 09:07:30;;;;;;;;;;;;;;;14.51;100.00;98005.75;5077784;28;19925;-75
2022/10/22 09:09:57;;;;;;;;;;;;;;;14.59;100.00;98010.50;5060059;28;19971;-75
2022/10/22 09:12:24;;;;;;;;;;;;;;;14.48;100.00;98016.28;5058126;28;19977;-75
2022/10/22 09:14:51;;;;;;;;;;;;;;;14.69;100.00;98028.41;5058785;28;19956;-75
2022/10/22 09:17:21;;;;;;;;;;;;;;;14.61;100.00;98020.94;5060974;28;19991;-76
2022/10/22 09:19:58;;;;;;;;;;;;;;;14.53;100.00;98018.91;5060295;28;19956;-75
2022/10/22 09:22:32;;;;;;;;;;;;;;;14.55;100.00;98016.72;5056472;28;19996;-76
2022/10/22 09:25:09;;;;;;;;;;;;;;;14.54;100.00;98015.13;5059479;28;19992;-76
2022/10/22 09:27:36;;;;;;;;;;;;;;;14.81;100.00;98020.72;5060683;28;19936;-75
2022/10/22 09:30:02;;;;;;;;;;;;;;;14.73;100.00;98025.94;5073340;28;19992;-75
2022/10/22 09:32:28;;;;;;;;;;;;;;;14.67;100.00;98022.50;5055917;28;19996;-75
2022/10/22 09:35:01;;;;;;;;;;;;;;;14.57;100.00;98019.94;5058665;28;19992;-78
2022/10/22 09:37:28;;;;;;;;;;;;;;;14.72;100.00;98033.22;5060051;28;19925;-75
2022/10/22 09:39:57;;;;;;;;;;;;;;;14.74;100.00;98035.59;5073823;28;19993;-76
2022/10/22 09:42:25;;;;;;;;;;;;;;;14.73;100.00;98029.41;5057230;28;19929;-77
2022/10/22 09:44:52;;;;;;;;;;;;;;;14.75;100.00;98040.69;5058183;28;19925;-76
2022/10/22 09:47:28;;;;;;;;;;;;;;;14.73;100.00;98039.38;5075496;28;19925;-76
2022/10/22 09:50:04;;;;;;;;;;;;;;;14.78;100.00;98045.50;5073664;28;20169;-76
2022/10/22 09:52:30;;;;;;;;;;;;;;;14.83;100.00;98050.00;5051732;28;19929;-76
2022/10/22 09:54:57;;;;;;;;;;;;;;;14.75;100.00;98051.44;5057368;28;19925;-76
2022/10/22 09:57:26;;;;;;;;;;;;;;;14.94;100.00;98054.19;5060018;28;19951;-76
2022/10/22 09:59:56;;;;;;;;;;;;;;;14.88;100.00;98048.06;5058704;28;20021;-76
2022/10/22 10:02:23;;;;;;;;;;;;;;;14.98;100.00;98047.13;5055825;28;19935;-77
2022/10/22 10:04:51;;;;;;;;;;;;;;;14.94;100.00;98051.50;5056403;28;19948;-76
2022/10/22 10:07:18;;;;;;;;;;;;;;;14.92;100.00;98056.34;5075405;28;19925;-76
2022/10/22 10:09:45;;;;;;;;;;;;;;;14.78;100.00;98055.44;5059831;28;19963;-76
2022/10/22 10:12:20;;;;;;;;;;;;;;;14.82;100.00;98049.22;5052335;28;19926;-76
2022/10/22 10:14:53;;;;;;;;;;;;;;;14.77;100.00;98046.59;5055783;28;19940;-76
2022/10/22 10:17:26;;;;;;;;;;;;;;;14.81;100.00;98047.63;5058153;28;19959;-76
2022/10/22 10:19:59;;;;;;;;;;;;;;;14.71;100.00;98047.72;5057562;28;19924;-77
2022/10/22 10:22:35;;;;;;;;;;;;;;;14.71;100.00;98058.47;5056526;28;19936;-76
2022/10/22 10:25:20;;;;;;;;;;;;;;;14.83;100.00;98053.50;5056505;28;19980;-76
2022/10/22 10:27:50;;;;;;;;;;;;;;;14.80;100.00;98054.06;5073849;28;20404;-76
2022/10/22 10:30:34;;;;;;;;;;;;;;;14.99;100.00;98054.94;5059210;28;20249;-86
2022/10/22 10:33:20;;;;;;;;;;;;;;;15.09;100.00;98059.38;5070240;28;19921;-85
2022/10/22 10:35:54;;;;;;;;;;;;;;;15.14;100.00;98052.03;5059247;28;19984;-77
2022/10/22 10:38:38;;;;;;;;;;;;;;;15.20;100.00;98065.41;5059492;28;19947;-76
2022/10/22 10:41:12;;;;;;;;;;;;;;;15.18;100.00;98057.66;5056092;28;19929;-76
2022/10/22 10:43:44;;;;;;;;;;;;;;;14.99;100.00;98054.94;5054732;28;20688;-76
2022/10/22 10:46:16;;;;;;;;;;;;;;;14.87;100.00;98057.22;5047937;28;19929;-76
2022/10/22 10:48:48;;;;;;;;;;;;;;;14.96;100.00;98052.00;5054556;28;19925;-77
2022/10/22 10:51:21;;;;;;;;;;;;;;;15.09;100.00;98054.00;5048995;28;19929;-76
2022/10/22 10:54:00;;;;;;;;;;;;;;;15.30;100.00;98049.94;5057354;28;19924;-76
2022/10/22 10:56:37;;;;;;;;;;;;;;;15.25;100.00;98035.78;5055259;28;19925;-77
2022/10/22 10:59:11;;;;;;;;;;;;;;;15.54;100.00;98052.59;5074247;28;19971;-77
2022/10/22 11:01:42;;;;;;;;;;;;;;;15.66;100.00;98048.38;5059460;28;19924;-77
2022/10/22 11:04:21;;;;;;;;;;;;;;;15.72;100.00;98045.63;5056295;28;19935;-76
2022/10/22 11:06:53;;;;;;;;;;;;;;;15.74;100.00;98046.13;5056202;28;20028;-77
2022/10/22 11:09:23;;;;;;;;;;;;;;;15.75;100.00;98040.47;5059516;28;19960;-77
2022/10/22 11:11:51;;;;;;;;;;;;;;;15.75;100.00;98050.44;5057854;28;19985;-77
2022/10/22 11:14:21;;;;;;;;;;;;;;;15.74;100.00;98048.81;5054891;28;19988;-77
2022/10/22 11:16:51;;;;;;;;;;;;;;;15.82;100.00;98046.25;5054939;28;19929;-77
2022/10/22 11:19:20;;;;;;;;;;;;;;;15.86;100.00;98041.09;5073829;28;19960;-77
2022/10/22 11:21:50;;;;;;;;;;;;;;;15.94;100.00;98043.09;5073660;28;19964;-76
2022/10/22 11:24:20;;;;;;;;;;;;;;;16.12;100.00;98042.28;5054950;28;19926;-77
2022/10/22 11:26:48;;;;;;;;;;;;;;;16.08;100.00;98033.19;5055288;28;20290;-77
2022/10/22 11:29:17;;;;;;;;;;;;;;;16.26;100.00;98034.22;5073902;28;19936;-77
2022/10/22 11:31:44;;;;;;;;;;;;;;;16.38;100.00;98031.84;5073963;28;19929;-76
2022/10/22 11:34:15;;;;;;;;;;;;;;;16.43;100.00;98048.72;5054083;28;19944;-77
2022/10/22 11:36:42;;;;;;;;;;;;;;;16.26;100.00;98043.13;5055703;28;19925;-77
2022/10/22 11:39:26;;;;;;;;;;;;;;;16.46;100.00;98037.38;5047479;28;19936;-77
2022/10/22 11:41:55;;;;;;;;;;;;;;;16.33;100.00;98040.84;5056836;28;19925;-76
2022/10/22 11:44:22;;;;;;;;;;;;;;;16.44;100.00;98042.25;5058463;28;19925;-76
2022/10/22 11:47:05;;;;;;;;;;;;;;;16.42;100.00;98043.66;5057733;28;19939;-76
2022/10/22 11:49:41;;;;;;;;;;;;;;;16.39;100.00;98044.25;5053869;28;19925;-77
2022/10/22 11:52:23;;;;;;;;;;;;;;;16.64;100.00;98038.41;5058239;28;19948;-77
2022/10/22 11:54:53;;;;;;;;;;;;;;;16.59;100.00;98046.59;5053217;28;19926;-76
2022/10/22 11:57:23;;;;;;;;;;;;;;;16.47;100.00;98047.03;5058652;28;19924;-76
2022/10/22 11:59:50;;;;;;;;;;;;;;;16.67;100.00;98037.81;5056072;28;19963;-77
2022/10/22 12:02:32;;;;;;;;;;;;;;;16.85;100.00;98034.22;5054498;28;19932;-78
2022/10/22 12:05:17;;;;;;;;;;;;;;;16.64;100.00;98022.25;5056030;28;19964;-78
2022/10/22 12:07:51;;;;;;;;;;;;;;;16.91;100.00;98018.72;5073918;28;19991;-77
2022/10/22 12:10:18;;;;;;;;;;;;;;;16.80;100.00;98025.44;5053946;28;19973;-79
2022/10/22 12:12:52;;;;;;;;;;;;;;;16.84;100.00;98018.31;5055238;28;19936;-77
2022/10/22 12:15:22;;;;;;;;;;;;;;;17.00;100.00;98017.72;5073764;28;20008;-77
2022/10/22 12:17:49;;;;;;;;;;;;;;;16.82;100.00;98020.53;5072943;28;19932;-77
2022/10/22 12:20:16;;;;;;;;;;;;;;;16.85;100.00;98015.34;5054283;28;19929;-76
2022/10/22 12:22:43;;;;;;;;;;;;;;;16.97;100.00;98017.53;5054879;28;19925;-78
2022/10/22 12:25:15;;;;;;;;;;;;;;;16.74;100.00;98013.97;5083779;28;19976;-77
2022/10/22 12:27:41;;;;;;;;;;;;;;;16.70;100.00;98019.16;5058545;28;20649;-77
2022/10/22 12:30:21;;;;;;;;;;;;;;;16.74;100.00;98019.34;5061860;28;19981;-77
2022/10/22 12:32:47;;;;;;;;;;;;;;;16.68;100.00;98015.16;5062467;28;19988;-77
2022/10/22 12:35:15;;;;;;;;;;;;;;;16.91;100.00;98006.03;5061231;28;19925;-77
2022/10/22 12:37:42;;;;;;;;;;;;;;;16.79;100.00;98004.94;5063118;28;19984;-77
2022/10/22 12:40:22;;;;;;;;;;;;;;;17.03;100.00;98000.94;5065195;28;19929;-77
2022/10/22 12:42:50;;;;;;;;;;;;;;;17.09;100.00;97994.31;5066388;28;19924;-77